Terminal Aerodrome Forecast
Issued by NWS

Current Version | Previous Version | Text Only | Print | Product List | Glossary On
Versions: 1 2 3 4 5 6 7 8 9 10 11 12 13 14 15 16 17
000
FTUS43 KAPX 312334
TAFMBL
TAF
KMBL 312334Z 0100/0124 27008KT P6SM VCSH BKN080
     FM010200 VRB03KT P6SM BKN080
     FM011500 28009KT P6SM SCT050
      AMD LTD TO CLD VIS AND WIND=

USA.gov is the U.S. government's official web portal to all federal, state and local government web resources and services.